Time;durP1;ratioP1;P1;durP2;ratioP2;P2;SDS_P1;SDS_P2;PMS_P1;PMS_P2;Temp;Humidity;BMP_temperature;BMP_pressure;BME280_temperature;BME280_humidity;BME280_pressure;Samples;Min_cycle;Max_cycle;Signal;HPM_P1;HPM_P2
2023/07/15 00:01:48;;;;;;;7.75;3.92;;;20.80;97.40;;;;;;5037312;28;20060;-78
2023/07/15 00:04:14;;;;;;;10.82;4.38;;;20.80;97.50;;;;;;5043882;28;20111;-78
2023/07/15 00:06:40;;;;;;;11.05;3.45;;;20.80;97.60;;;;;;5047388;28;20028;-78
2023/07/15 00:09:06;;;;;;;9.60;4.30;;;20.80;97.60;;;;;;5051393;28;20601;-78
2023/07/15 00:11:50;;;;;;;8.25;4.50;;;20.70;97.50;;;;;;5049233;28;20112;-78
2023/07/15 00:14:21;;;;;;;7.22;4.18;;;20.70;97.50;;;;;;5045132;28;20056;-78
2023/07/15 00:16:47;;;;;;;6.43;4.03;;;20.70;97.50;;;;;;5047557;28;20024;-78
2023/07/15 00:19:13;;;;;;;11.85;3.92;;;20.70;97.50;;;;;;5030274;28;20052;-78
2023/07/15 00:21:39;;;;;;;6.80;4.05;;;20.70;97.50;;;;;;5049015;28;20536;-78
2023/07/15 00:24:05;;;;;;;8.85;4.45;;;20.70;97.20;;;;;;5047484;28;20028;-78
2023/07/15 00:26:34;;;;;;;5.05;3.90;;;20.70;97.50;;;;;;5029155;28;20029;-78
2023/07/15 00:29:00;;;;;;;7.93;3.40;;;20.70;97.30;;;;;;5043518;28;20030;-78
2023/07/15 00:31:27;;;;;;;5.82;3.70;;;20.70;97.30;;;;;;5047144;28;20021;-78
2023/07/15 00:33:52;;;;;;;8.93;3.88;;;20.70;97.20;;;;;;5042983;28;20036;-78
2023/07/15 00:36:18;;;;;;;7.07;2.97;;;20.70;97.30;;;;;;5045484;28;20021;-78
2023/07/15 00:38:44;;;;;;;7.45;3.40;;;20.70;97.40;;;;;;5044169;28;20021;-78
2023/07/15 00:41:18;;;;;;;9.82;3.58;;;20.70;97.30;;;;;;5045039;28;20497;-78
2023/07/15 00:43:59;;;;;;;5.72;3.08;;;20.70;97.20;;;;;;5042948;28;20034;-77
2023/07/15 00:46:57;;;;;;;3.80;2.55;;;20.70;97.20;;;;;;5042077;28;20017;-78
2023/07/15 00:49:26;;;;;;;6.80;2.92;;;20.70;97.30;;;;;;5043195;28;20017;-78
2023/07/15 00:52:00;;;;;;;7.35;3.05;;;20.70;97.10;;;;;;5041949;28;20064;-78
2023/07/15 00:54:28;;;;;;;4.32;2.85;;;20.70;97.20;;;;;;5044565;28;20029;-78
2023/07/15 00:56:56;;;;;;;4.57;3.20;;;20.70;97.10;;;;;;5045408;28;20079;-78
2023/07/15 00:59:22;;;;;;;6.25;3.25;;;20.70;97.10;;;;;;5044795;28;20024;-78
2023/07/15 01:01:49;;;;;;;4.03;2.70;;;20.70;97.10;;;;;;5047647;28;20029;-77
2023/07/15 01:04:15;;;;;;;6.32;3.00;;;20.70;97.20;;;;;;5046842;28;20032;-78
2023/07/15 01:06:45;;;;;;;8.85;3.60;;;20.70;97.10;;;;;;5047270;28;20036;-78
2023/07/15 01:09:11;;;;;;;6.70;3.03;;;20.70;97.20;;;;;;5043756;28;20132;-78
2023/07/15 01:11:37;;;;;;;11.02;3.95;;;20.70;97.10;;;;;;5044261;28;20032;-77
2023/07/15 01:14:03;;;;;;;6.95;3.47;;;20.70;97.10;;;;;;5042398;28;20025;-78
2023/07/15 01:16:28;;;;;;;6.22;3.38;;;20.70;97.30;;;;;;5044190;28;20471;-77
2023/07/15 01:18:55;;;;;;;4.32;2.72;;;20.70;97.30;;;;;;5043286;28;20104;-78
2023/07/15 01:21:21;;;;;;;5.72;3.38;;;20.70;97.30;;;;;;5045195;28;20394;-78
2023/07/15 01:23:47;;;;;;;6.65;3.20;;;20.70;97.30;;;;;;5023539;28;20029;-78
2023/07/15 01:26:13;;;;;;;8.27;3.85;;;20.70;97.10;;;;;;5045107;28;20017;-78
2023/07/15 01:28:38;;;;;;;5.25;3.63;;;20.60;97.10;;;;;;5043065;28;20083;-78
2023/07/15 01:31:04;;;;;;;7.78;3.50;;;20.60;97.10;;;;;;5038810;28;20039;-78
2023/07/15 01:33:31;;;;;;;9.13;2.95;;;20.60;97.10;;;;;;5037501;28;20481;-78
2023/07/15 01:35:56;;;;;;;5.60;2.88;;;20.60;97.10;;;;;;5042496;28;20052;-78
2023/07/15 01:38:22;;;;;;;7.32;4.22;;;20.70;97.20;;;;;;5042122;28;20458;-78
2023/07/15 01:40:48;;;;;;;6.75;4.07;;;20.60;97.20;;;;;;5038967;28;20076;-78
2023/07/15 01:43:14;;;;;;;7.30;3.80;;;20.70;97.20;;;;;;5036884;28;20107;-78
2023/07/15 01:45:40;;;;;;;10.77;4.03;;;20.70;97.30;;;;;;5038713;28;20032;-77
2023/07/15 01:48:08;;;;;;;6.90;3.40;;;20.60;97.10;;;;;;5037696;28;20025;-76
2023/07/15 01:50:35;;;;;;;6.53;3.33;;;20.60;97.10;;;;;;5035897;28;20475;-78
2023/07/15 01:53:01;;;;;;;5.55;3.10;;;20.60;97.20;;;;;;5040682;28;20029;-77
2023/07/15 01:55:27;;;;;;;11.88;3.25;;;20.60;97.10;;;;;;5046044;28;20466;-78
2023/07/15 01:57:53;;;;;;;9.80;3.53;;;20.60;97.20;;;;;;5035633;28;20490;-78
2023/07/15 02:00:20;;;;;;;13.07;3.53;;;20.60;97.10;;;;;;5037364;28;20500;-77
2023/07/15 02:02:46;;;;;;;7.57;3.58;;;20.60;97.20;;;;;;5039834;28;20053;-78
2023/07/15 02:05:12;;;;;;;4.03;3.42;;;20.60;97.30;;;;;;5037071;28;20382;-78
2023/07/15 02:07:38;;;;;;;4.88;3.38;;;20.60;97.20;;;;;;5039634;28;20027;-78
2023/07/15 02:10:04;;;;;;;6.47;3.30;;;20.60;97.20;;;;;;5045729;28;20363;-78
2023/07/15 02:12:29;;;;;;;4.68;3.03;;;20.60;97.20;;;;;;5038272;28;20021;-78
2023/07/15 02:14:56;;;;;;;4.93;3.00;;;20.60;97.20;;;;;;5043033;28;20116;-78
2023/07/15 02:17:22;;;;;;;6.88;3.20;;;20.60;97.20;;;;;;5041331;28;20447;-78
2023/07/15 02:19:57;;;;;;;4.80;2.70;;;20.60;97.20;;;;;;5041756;28;20109;-78
2023/07/15 02:22:23;;;;;;;6.53;3.83;;;20.60;97.20;;;;;;5024428;28;20551;-78
2023/07/15 02:24:48;;;;;;;7.85;3.17;;;20.60;97.20;;;;;;5042769;28;20024;-77
2023/07/15 02:27:16;;;;;;;7.28;2.70;;;20.60;97.20;;;;;;5043414;28;20025;-77
2023/07/15 02:29:43;;;;;;;7.38;3.47;;;20.60;97.20;;;;;;5046441;28;20021;-78
2023/07/15 02:32:08;;;;;;;8.10;3.40;;;20.60;97.20;;;;;;5037080;28;20020;-78
2023/07/15 02:34:34;;;;;;;7.55;3.33;;;20.60;97.30;;;;;;5041286;28;20107;-78
2023/07/15 02:37:01;;;;;;;5.72;3.05;;;20.60;97.20;;;;;;5040465;28;20028;-78
2023/07/15 02:39:26;;;;;;;5.93;3.00;;;20.60;97.20;;;;;;5047602;28;20021;-78
2023/07/15 02:41:52;;;;;;;7.78;3.38;;;20.60;97.30;;;;;;5056970;28;20055;-78
2023/07/15 02:44:18;;;;;;;6.72;2.85;;;20.60;97.20;;;;;;5048570;28;20052;-78
2023/07/15 02:46:43;;;;;;;4.55;3.13;;;20.60;97.30;;;;;;5045841;28;20050;-78
2023/07/15 02:49:09;;;;;;;6.00;3.35;;;20.60;97.30;;;;;;5024759;28;20041;-78
2023/07/15 02:51:35;;;;;;;6.00;2.47;;;20.60;97.30;;;;;;5046150;28;20028;-78
2023/07/15 02:54:01;;;;;;;6.78;3.65;;;20.60;97.30;;;;;;5045616;28;20017;-78
2023/07/15 02:56:27;;;;;;;6.93;3.45;;;20.60;97.40;;;;;;5049712;28;20036;-78
2023/07/15 02:58:54;;;;;;;6.25;3.45;;;20.60;97.50;;;;;;5047098;28;20025;-78
2023/07/15 03:01:20;;;;;;;4.85;2.80;;;20.60;97.40;;;;;;5055653;28;20134;-78
2023/07/15 03:03:45;;;;;;;9.00;3.58;;;20.60;97.50;;;;;;5045349;28;20111;-77
2023/07/15 03:06:12;;;;;;;4.57;3.40;;;20.60;97.40;;;;;;5041328;28;20112;-78
2023/07/15 03:08:38;;;;;;;5.38;3.22;;;20.60;97.50;;;;;;5048150;28;20035;-78
2023/07/15 03:11:08;;;;;;;7.78;2.90;;;20.60;97.40;;;;;;5048339;28;20104;-77
2023/07/15 03:13:34;;;;;;;3.60;2.90;;;20.60;97.40;;;;;;5046636;28;20021;-77
2023/07/15 03:15:59;;;;;;;6.30;2.97;;;20.60;97.40;;;;;;5046320;28;20107;-78
2023/07/15 03:18:26;;;;;;;7.97;2.95;;;20.60;97.50;;;;;;5047171;28;20023;-78
2023/07/15 03:20:56;;;;;;;5.80;2.88;;;20.60;97.40;;;;;;5035539;28;20036;-78
2023/07/15 03:23:22;;;;;;;13.40;3.17;;;20.50;97.50;;;;;;5052774;28;20036;-78
2023/07/15 03:25:47;;;;;;;7.20;3.13;;;20.50;97.40;;;;;;5051334;28;20020;-78
2023/07/15 03:28:13;;;;;;;7.05;3.20;;;20.50;97.50;;;;;;5050297;28;20479;-78
2023/07/15 03:30:39;;;;;;;10.10;3.35;;;20.50;97.40;;;;;;5054319;28;20013;-78
2023/07/15 03:33:04;;;;;;;7.60;3.40;;;20.50;97.40;;;;;;5036463;28;20027;-78
2023/07/15 03:35:30;;;;;;;9.13;3.28;;;20.50;97.50;;;;;;5051397;28;20037;-78
2023/07/15 03:37:56;;;;;;;12.38;3.25;;;20.50;97.40;;;;;;5050932;28;20028;-78
2023/07/15 03:40:22;;;;;;;5.82;3.60;;;20.50;97.40;;;;;;5050673;28;20020;-78
2023/07/15 03:42:50;;;;;;;3.90;2.80;;;20.50;97.40;;;;;;5052306;28;20025;-77
2023/07/15 03:45:16;;;;;;;4.32;3.17;;;20.50;97.40;;;;;;5050722;28;20025;-78
2023/07/15 03:47:41;;;;;;;8.98;3.83;;;20.50;97.50;;;;;;5051770;28;20115;-78
2023/07/15 03:50:11;;;;;;;8.07;3.10;;;20.50;97.50;;;;;;5052149;28;20040;-78
2023/07/15 03:52:36;;;;;;;13.43;4.28;;;20.50;97.50;;;;;;5031640;28;20024;-78
2023/07/15 03:55:03;;;;;;;4.43;3.55;;;20.50;97.60;;;;;;5054167;28;20033;-78
2023/07/15 03:57:29;;;;;;;5.43;3.28;;;20.50;97.50;;;;;;5052501;28;20036;-78
2023/07/15 03:59:54;;;;;;;9.95;3.97;;;20.50;97.60;;;;;;5050062;28;20025;-79
2023/07/15 04:02:21;;;;;;;9.50;3.08;;;20.50;97.60;;;;;;5053962;28;20108;-78
2023/07/15 04:04:46;;;;;;;12.30;3.17;;;20.50;97.60;;;;;;5051097;28;20025;-78
2023/07/15 04:07:12;;;;;;;8.55;3.30;;;20.50;97.70;;;;;;5033113;28;20031;-79
2023/07/15 04:09:38;;;;;;;4.03;2.50;;;20.50;97.50;;;;;;5056850;28;20019;-79
2023/07/15 04:12:06;;;;;;;4.43;2.70;;;20.20;95.60;;;;;;5050955;28;20425;-79
2023/07/15 04:14:31;;;;;;;11.40;3.38;;;19.90;95.20;;;;;;5048071;28;20183;-79
2023/07/15 04:16:57;;;;;;;3.78;3.05;;;19.90;95.00;;;;;;5045616;28;20071;-79
2023/07/15 04:19:22;;;;;;;8.27;3.20;;;19.80;95.00;;;;;;5031456;28;20064;-80
2023/07/15 04:21:48;;;;;;;9.25;3.55;;;19.70;94.90;;;;;;5038926;28;20497;-79
2023/07/15 04:24:15;;;;;;;7.97;4.00;;;19.70;94.90;;;;;;5035006;28;20053;-79
2023/07/15 04:26:41;;;;;;;8.45;3.50;;;19.70;95.00;;;;;;5038060;28;20458;-80
2023/07/15 04:29:07;;;;;;;8.57;3.80;;;19.60;95.00;;;;;;5043255;28;20017;-79
2023/07/15 04:31:32;;;;;;;5.13;3.40;;;19.70;94.90;;;;;;5031772;28;20033;-80
2023/07/15 04:33:58;;;;;;;9.25;4.05;;;19.60;95.00;;;;;;5017439;28;20029;-80
2023/07/15 04:36:24;;;;;;;7.88;3.72;;;19.60;95.00;;;;;;5020356;28;20509;-80
2023/07/15 04:38:49;;;;;;;8.35;3.50;;;19.60;95.10;;;;;;5040400;28;20049;-79
2023/07/15 04:41:15;;;;;;;9.05;4.38;;;19.60;95.20;;;;;;5041099;28;20075;-79
2023/07/15 04:43:41;;;;;;;13.35;4.10;;;19.70;95.30;;;;;;5039116;28;20021;-79
2023/07/15 04:46:07;;;;;;;13.55;3.78;;;19.60;95.40;;;;;;5037186;28;20021;-80
2023/07/15 04:48:33;;;;;;;14.95;4.10;;;19.60;95.60;;;;;;5039150;28;20021;-80
2023/07/15 04:50:59;;;;;;;4.95;3.15;;;19.60;95.80;;;;;;5025133;28;20060;-80
2023/07/15 04:53:25;;;;;;;9.90;4.40;;;19.60;95.90;;;;;;5044134;28;20088;-80
2023/07/15 04:55:51;;;;;;;6.72;3.78;;;19.60;96.10;;;;;;5023700;28;20039;-80
2023/07/15 04:58:18;;;;;;;6.45;3.35;;;19.70;96.50;;;;;;5022148;28;20358;-80
2023/07/15 05:00:48;;;;;;;3.45;2.75;;;19.60;96.60;;;;;;5042082;28;20078;-80
2023/07/15 05:03:14;;;;;;;5.68;3.33;;;19.60;96.50;;;;;;5038268;28;20525;-80
2023/07/15 05:05:40;;;;;;;7.70;3.67;;;19.60;96.50;;;;;;5038489;28;20031;-81
2023/07/15 05:08:15;;;;;;;7.78;3.70;;;19.60;96.60;;;;;;5039805;28;20013;-80
2023/07/15 05:10:41;;;;;;;11.32;3.90;;;19.70;96.80;;;;;;5039852;28;20017;-81
2023/07/15 05:13:09;;;;;;;8.93;4.50;;;19.70;96.80;;;;;;5036261;28;20033;-82
2023/07/15 05:15:38;;;;;;;6.07;3.63;;;19.60;96.80;;;;;;5014977;28;20030;-81
2023/07/15 05:18:06;;;;;;;7.87;3.77;;;19.70;96.80;;;;;;5041648;28;20091;-81
2023/07/15 05:20:33;;;;;;;6.88;4.40;;;19.70;96.80;;;;;;5038423;28;20032;-81
2023/07/15 05:22:59;;;;;;;9.20;4.10;;;19.70;96.80;;;;;;5040981;28;20032;-81
2023/07/15 05:25:25;;;;;;;6.35;4.13;;;19.80;96.50;;;;;;5044509;28;20076;-81
2023/07/15 05:27:51;;;;;;;12.07;4.70;;;19.70;96.50;;;;;;5027905;28;20107;-81
2023/07/15 05:30:19;;;;;;;8.40;4.38;;;19.80;96.60;;;;;;5039358;28;20025;-80
2023/07/15 05:32:44;;;;;;;8.32;4.25;;;19.80;96.40;;;;;;5040888;28;20013;-80
2023/07/15 05:35:10;;;;;;;8.35;4.60;;;19.80;96.30;;;;;;5038951;28;20041;-81
2023/07/15 05:37:36;;;;;;;7.97;3.88;;;19.80;96.20;;;;;;5031134;28;20029;-80
2023/07/15 05:40:01;;;;;;;9.95;4.05;;;19.90;96.30;;;;;;5027955;28;20058;-81
2023/07/15 05:42:27;;;;;;;6.32;3.72;;;19.90;96.20;;;;;;5024419;28;20464;-81
2023/07/15 05:44:52;;;;;;;9.05;4.03;;;19.90;96.20;;;;;;5031048;28;20036;-80
2023/07/15 05:47:18;;;;;;;6.15;3.65;;;19.90;96.50;;;;;;5027161;28;20079;-81
2023/07/15 05:49:44;;;;;;;11.18;4.00;;;19.90;96.40;;;;;;5028995;28;20056;-81
2023/07/15 05:52:09;;;;;;;5.90;4.10;;;20.00;96.60;;;;;;5023379;28;20025;-81
2023/07/15 05:54:35;;;;;;;8.57;3.03;;;20.00;96.70;;;;;;5030982;28;20036;-81
2023/07/15 05:57:00;;;;;;;6.05;3.53;;;20.00;96.80;;;;;;5047849;28;20029;-81
2023/07/15 05:59:26;;;;;;;7.65;3.60;;;20.10;96.90;;;;;;5040302;28;20028;-81
2023/07/15 06:01:52;;;;;;;8.07;3.83;;;20.10;96.90;;;;;;5016620;28;20036;-81
2023/07/15 06:04:17;;;;;;;14.48;3.70;;;20.10;96.90;;;;;;5040062;28;20147;-80
2023/07/15 06:06:43;;;;;;;7.50;4.30;;;20.20;97.10;;;;;;5023783;28;20030;-78
2023/07/15 06:09:09;;;;;;;8.68;3.40;;;20.60;96.70;;;;;;5019600;28;20074;-79
2023/07/15 06:11:34;;;;;;;5.00;2.80;;;20.30;96.40;;;;;;5038683;28;20021;-79
2023/07/15 06:14:00;;;;;;;9.13;3.83;;;20.40;96.30;;;;;;5042104;28;20116;-79
2023/07/15 06:16:26;;;;;;;5.35;3.47;;;20.40;96.30;;;;;;5040530;28;20029;-80
2023/07/15 06:18:52;;;;;;;4.75;3.17;;;20.50;96.20;;;;;;5039795;28;20069;-79
2023/07/15 06:21:18;;;;;;;22.98;3.70;;;20.50;96.20;;;;;;5040896;28;20079;-79
2023/07/15 06:23:43;;;;;;;9.27;3.60;;;20.50;96.20;;;;;;5038229;28;20215;-79
2023/07/15 06:26:09;;;;;;;4.05;2.88;;;20.50;96.20;;;;;;5042375;28;20363;-80
2023/07/15 06:28:35;;;;;;;12.15;2.80;;;20.50;96.20;;;;;;5043809;28;20359;-77
2023/07/15 06:31:06;;;;;;;7.35;3.20;;;20.50;96.30;;;;;;5040859;28;20466;-79
2023/07/15 06:33:35;;;;;;;4.30;3.08;;;20.50;96.40;;;;;;5044239;28;20021;-80
2023/07/15 06:36:02;;;;;;;13.90;3.63;;;20.50;96.60;;;;;;5044385;28;20028;-79
2023/07/15 06:38:28;;;;;;;8.32;3.08;;;20.60;96.50;;;;;;5045952;28;20033;-79
2023/07/15 06:40:54;;;;;;;8.55;3.30;;;20.50;96.60;;;;;;5042992;28;20033;-79
2023/07/15 06:43:20;;;;;;;3.85;2.55;;;20.50;96.70;;;;;;5041899;28;20428;-79
2023/07/15 06:45:45;;;;;;;6.13;3.85;;;20.60;96.70;;;;;;5021906;28;20029;-79
2023/07/15 06:48:12;;;;;;;7.40;3.95;;;20.60;96.80;;;;;;5044470;28;20037;-79
2023/07/15 06:50:41;;;;;;;9.40;3.47;;;20.60;96.80;;;;;;5041149;28;20023;-79
2023/07/15 06:53:07;;;;;;;8.20;3.28;;;20.60;96.90;;;;;;5042314;28;20037;-78
2023/07/15 06:55:32;;;;;;;7.13;3.25;;;20.60;96.90;;;;;;5040179;28;20025;-79
2023/07/15 06:57:58;;;;;;;7.90;3.75;;;20.60;96.90;;;;;;5024032;28;20032;-79
2023/07/15 07:00:24;;;;;;;5.55;3.30;;;20.60;96.90;;;;;;5038090;28;20110;-80
2023/07/15 07:02:50;;;;;;;4.97;3.53;;;20.60;96.90;;;;;;5041056;28;20018;-79
2023/07/15 07:05:16;;;;;;;6.63;3.47;;;20.60;96.90;;;;;;5043054;28;20498;-79
2023/07/15 07:07:42;;;;;;;6.22;3.13;;;20.70;97.00;;;;;;5039626;28;20116;-80
2023/07/15 07:10:08;;;;;;;8.70;3.55;;;20.70;97.00;;;;;;5037095;28;20020;-79
2023/07/15 07:12:34;;;;;;;5.30;2.75;;;20.60;96.90;;;;;;5043968;28;20025;-79
2023/07/15 07:15:00;;;;;;;3.97;2.97;;;20.70;96.90;;;;;;5040130;28;20476;-80
2023/07/15 07:17:27;;;;;;;9.77;3.03;;;20.70;96.90;;;;;;5043720;28;20473;-78
2023/07/15 07:19:53;;;;;;;6.35;2.70;;;20.70;96.90;;;;;;5046093;28;20032;-79
2023/07/15 07:22:19;;;;;;;3.83;2.47;;;20.70;96.90;;;;;;5060510;28;20044;-80
2023/07/15 07:24:45;;;;;;;5.80;2.97;;;20.70;96.80;;;;;;5056532;28;20027;-79
2023/07/15 07:27:12;;;;;;;5.78;2.50;;;20.70;96.90;;;;;;5059762;28;20135;-79
2023/07/15 07:29:38;;;;;;;3.13;2.60;;;20.70;96.80;;;;;;5059788;28;20377;-78
2023/07/15 07:32:04;;;;;;;7.10;2.88;;;20.80;96.90;;;;;;5061555;28;20020;-80
2023/07/15 07:34:30;;;;;;;8.15;2.80;;;20.70;97.00;;;;;;5060597;28;20031;-79
2023/07/15 07:36:58;;;;;;;5.10;2.97;;;20.80;97.00;;;;;;5057872;28;20024;-79
2023/07/15 07:39:24;;;;;;;5.55;2.90;;;20.80;96.80;;;;;;5062058;28;20024;-80
2023/07/15 07:41:49;;;;;;;5.63;3.03;;;20.80;96.90;;;;;;5061375;28;20028;-80
2023/07/15 07:44:15;;;;;;;8.45;2.58;;;20.80;96.90;;;;;;5054745;28;20021;-80
2023/07/15 07:46:41;;;;;;;5.95;3.20;;;20.80;96.90;;;;;;5055079;28;20040;-80
2023/07/15 07:49:06;;;;;;;6.20;2.88;;;20.80;96.90;;;;;;5061670;28;20031;-80
2023/07/15 07:51:32;;;;;;;5.05;3.05;;;20.80;96.90;;;;;;5043650;28;20028;-80
2023/07/15 07:53:57;;;;;;;6.63;2.97;;;20.80;96.90;;;;;;5064693;28;20447;-80
2023/07/15 07:56:23;;;;;;;9.35;2.90;;;20.80;97.00;;;;;;5054525;28;20056;-80
2023/07/15 07:58:54;;;;;;;5.32;2.90;;;20.80;96.90;;;;;;5056347;28;20116;-81
2023/07/15 08:01:21;;;;;;;5.82;2.83;;;20.80;96.90;;;;;;5055434;28;20029;-80
2023/07/15 08:03:47;;;;;;;12.35;3.25;;;20.80;96.80;;;;;;5065473;28;20031;-80
2023/07/15 08:06:13;;;;;;;4.63;2.90;;;20.90;97.00;;;;;;5040145;28;20377;-80
2023/07/15 08:08:38;;;;;;;7.18;2.78;;;20.90;96.90;;;;;;5060370;28;20070;-80
2023/07/15 08:11:04;;;;;;;5.10;2.80;;;20.90;96.80;;;;;;5060008;28;20029;-80
2023/07/15 08:13:29;;;;;;;3.67;2.50;;;20.90;96.80;;;;;;5056976;28;20024;-80
2023/07/15 08:15:55;;;;;;;6.25;2.80;;;20.90;96.80;;;;;;5057545;28;20029;-80
2023/07/15 08:18:21;;;;;;;8.10;2.90;;;21.40;96.10;;;;;;5056674;28;20531;-80
2023/07/15 08:20:47;;;;;;;6.35;2.95;;;21.80;94.60;;;;;;5039822;28;20434;-81
2023/07/15 08:23:13;;;;;;;4.85;3.22;;;21.90;95.10;;;;;;5036203;28;20029;-80
2023/07/15 08:25:38;;;;;;;6.97;3.88;;;22.00;94.80;;;;;;5045084;28;20066;-81
2023/07/15 08:28:04;;;;;;;7.10;2.70;;;22.00;94.70;;;;;;5054290;28;20107;-80
2023/07/15 08:30:30;;;;;;;9.13;3.05;;;22.20;94.60;;;;;;5048531;28;20040;-81
2023/07/15 08:32:56;;;;;;;13.32;2.70;;;22.20;94.10;;;;;;5044798;28;20025;-80
2023/07/15 08:35:21;;;;;;;7.13;3.15;;;22.20;94.00;;;;;;5042607;28;20025;-80
2023/07/15 08:37:47;;;;;;;4.55;3.20;;;22.30;93.90;;;;;;5052568;28;20033;-80
2023/07/15 08:40:14;;;;;;;6.07;3.30;;;22.30;93.80;;;;;;5052256;28;20020;-80
2023/07/15 08:42:40;;;;;;;4.25;2.50;;;22.30;93.90;;;;;;5046169;28;20028;-80
2023/07/15 08:45:06;;;;;;;6.03;3.35;;;22.30;94.20;;;;;;5043870;28;20027;-80
2023/07/15 08:47:32;;;;;;;6.82;3.05;;;22.30;94.40;;;;;;5041243;28;20047;-80
2023/07/15 08:50:02;;;;;;;4.47;3.00;;;22.40;94.30;;;;;;5045540;28;20531;-80
2023/07/15 08:52:30;;;;;;;4.72;2.92;;;22.30;94.50;;;;;;5045049;28;20401;-80
2023/07/15 08:54:56;;;;;;;4.88;2.95;;;22.50;93.70;;;;;;5064012;28;20051;-80
2023/07/15 08:57:23;;;;;;;11.55;3.05;;;22.60;94.30;;;;;;5050977;28;20429;-81
2023/07/15 08:59:51;;;;;;;5.95;3.10;;;22.70;94.60;;;;;;5040086;28;20106;-79
2023/07/15 09:02:16;;;;;;;5.95;2.78;;;22.70;94.50;;;;;;5048908;28;20412;-81
2023/07/15 09:04:42;;;;;;;6.10;2.92;;;22.70;95.00;;;;;;5051111;28;20025;-81
2023/07/15 09:07:08;;;;;;;4.95;3.03;;;22.60;94.70;;;;;;5046248;28;20104;-81
2023/07/15 09:09:36;;;;;;;7.80;3.08;;;22.60;94.90;;;;;;5053384;28;20025;-86
2023/07/15 09:12:07;;;;;;;4.85;3.38;;;22.60;95.50;;;;;;5051761;28;20017;-81
2023/07/15 09:14:43;;;;;;;7.75;3.72;;;22.60;95.80;;;;;;5045407;28;20401;-80
2023/07/15 09:17:15;;;;;;;6.18;3.20;;;22.60;95.50;;;;;;5035355;28;20029;-80
2023/07/15 09:19:41;;;;;;;5.95;3.08;;;22.60;95.10;;;;;;5043440;28;20502;-80
2023/07/15 09:22:08;;;;;;;6.32;3.47;;;22.70;94.80;;;;;;5041499;28;20091;-80
2023/07/15 09:24:37;;;;;;;9.20;3.00;;;22.70;94.20;;;;;;5046843;28;20021;-81
2023/07/15 09:27:03;;;;;;;3.13;2.67;;;22.80;93.80;;;;;;5041685;28;20025;-81
2023/07/15 09:29:29;;;;;;;7.70;3.47;;;22.90;94.10;;;;;;5042248;28;20100;-81
2023/07/15 09:31:55;;;;;;;5.78;3.10;;;23.00;95.00;;;;;;5024954;28;20199;-80
2023/07/15 09:34:22;;;;;;;4.70;3.13;;;22.90;94.70;;;;;;5036564;28;20017;-81
2023/07/15 09:36:48;;;;;;;5.22;3.00;;;22.90;94.40;;;;;;5018340;28;20525;-81
2023/07/15 09:39:19;;;;;;;4.88;3.10;;;23.00;94.30;;;;;;5046019;28;20023;-81
2023/07/15 09:41:58;;;;;;;5.57;3.10;;;23.00;94.60;;;;;;5039821;28;20025;-81
2023/07/15 09:44:37;;;;;;;4.68;2.92;;;23.10;94.90;;;;;;5037322;28;20454;-81
2023/07/15 09:47:03;;;;;;;5.20;2.30;;;23.20;95.30;;;;;;5045312;28;20028;-81
2023/07/15 09:49:29;;;;;;;4.25;2.92;;;23.20;94.40;;;;;;5047278;28;20077;-80
2023/07/15 09:51:57;;;;;;;5.63;3.10;;;23.30;94.20;;;;;;5046029;28;20103;-80
2023/07/15 09:54:25;;;;;;;11.63;3.47;;;23.40;94.10;;;;;;5045994;28;20025;-87
2023/07/15 09:56:56;;;;;;;13.60;3.60;;;23.40;94.60;;;;;;5028824;28;20026;-89
2023/07/15 09:59:25;;;;;;;3.78;2.92;;;23.40;94.70;;;;;;5024997;28;20021;-89
2023/07/15 10:01:56;;;;;;;6.82;3.13;;;23.30;94.20;;;;;;5028131;28;20064;-88
2023/07/15 10:04:30;;;;;;;12.45;2.90;;;23.30;94.00;;;;;;5029479;28;20026;-89
2023/07/15 10:06:56;;;;;;;12.68;3.33;;;23.40;95.60;;;;;;5029635;28;20025;-89
2023/07/15 10:09:23;;;;;;;4.63;3.30;;;23.50;95.20;;;;;;5048166;28;20027;-87
2023/07/15 10:11:51;;;;;;;5.03;3.00;;;23.70;95.80;;;;;;5027670;28;20021;-89
2023/07/15 10:14:18;;;;;;;4.65;3.03;;;23.80;94.40;;;;;;5029005;28;20076;-90
2023/07/15 10:16:44;;;;;;;6.95;3.17;;;23.80;95.10;;;;;;5032869;28;20086;-88
2023/07/15 10:19:37;;;;;;;12.60;3.28;;;23.80;94.80;;;;;;5047870;28;20449;-89
2023/07/15 10:22:03;;;;;;;4.25;2.83;;;23.80;94.10;;;;;;5046863;28;20119;-88
2023/07/15 10:24:29;;;;;;;6.40;3.00;;;23.90;95.10;;;;;;5036704;28;20116;-88
2023/07/15 10:26:55;;;;;;;3.95;2.72;;;24.00;94.90;;;;;;5041093;28;20028;-88
2023/07/15 10:29:23;;;;;;;4.55;2.78;;;24.00;93.80;;;;;;5034490;28;20071;-87
2023/07/15 10:32:10;;;;;;;8.38;2.78;;;24.10;93.40;;;;;;5042620;28;20025;-88
2023/07/15 10:34:42;;;;;;;4.80;2.72;;;24.10;92.90;;;;;;5037464;28;20031;-89
2023/07/15 10:37:10;;;;;;;3.90;2.70;;;24.20;92.00;;;;;;5061634;28;20424;-87
2023/07/15 10:39:37;;;;;;;3.45;2.40;;;24.10;92.10;;;;;;5048410;28;20064;-86
2023/07/15 10:42:11;;;;;;;5.80;3.05;;;24.10;92.20;;;;;;5036776;28;20024;-88
2023/07/15 10:44:40;;;;;;;5.28;2.60;;;24.20;91.90;;;;;;5034773;28;20116;-89
2023/07/15 10:47:07;;;;;;;3.45;2.72;;;24.20;91.70;;;;;;5040098;28;20035;-88
2023/07/15 10:49:33;;;;;;;3.83;2.67;;;24.20;91.00;;;;;;5040672;28;20029;-88
2023/07/15 10:51:59;;;;;;;4.93;2.97;;;24.20;90.80;;;;;;5039035;28;20051;-90
2023/07/15 10:54:34;;;;;;;3.95;2.40;;;24.30;91.40;;;;;;5044181;28;20053;-88
2023/07/15 10:57:16;;;;;;;3.17;2.50;;;24.40;90.70;;;;;;5046519;28;20044;-92
2023/07/15 10:59:44;;;;;;;3.53;2.53;;;24.40;90.10;;;;;;5034704;28;20021;-90
2023/07/15 11:02:14;;;;;;;4.78;2.50;;;24.40;91.00;;;;;;5059262;28;20478;-92
2023/07/15 11:04:41;;;;;;;3.55;2.55;;;24.50;89.00;;;;;;5031640;28;20572;-91
2023/07/15 11:07:09;;;;;;;4.10;2.45;;;24.40;90.00;;;;;;5041443;28;20025;-92
2023/07/15 11:09:39;;;;;;;4.50;2.65;;;24.30;91.30;;;;;;5036183;28;20394;-90
2023/07/15 11:12:09;;;;;;;4.13;3.00;;;24.40;90.90;;;;;;5054690;28;20029;-91
2023/07/15 11:14:38;;;;;;;4.28;2.67;;;24.40;90.00;;;;;;5033332;28;20081;-88
2023/07/15 11:17:04;;;;;;;6.68;2.42;;;24.50;91.60;;;;;;5032817;28;20108;-91
2023/07/15 11:19:31;;;;;;;6.45;2.65;;;24.70;88.50;;;;;;5037856;28;20059;-89
2023/07/15 11:21:58;;;;;;;3.10;2.17;;;24.70;90.00;;;;;;5049996;28;20028;-88
2023/07/15 11:24:25;;;;;;;4.30;2.72;;;24.80;90.00;;;;;;5036137;28;20036;-90
2023/07/15 11:26:51;;;;;;;4.13;2.67;;;24.80;87.50;;;;;;5039790;28;20103;-90
2023/07/15 11:29:19;;;;;;;3.15;2.25;;;24.80;90.00;;;;;;5044480;28;20022;-89
2023/07/15 11:31:59;;;;;;;3.15;2.33;;;24.80;83.40;;;;;;5048540;28;20052;-91
2023/07/15 11:34:26;;;;;;;5.28;2.30;;;24.70;83.80;;;;;;5045420;28;20017;-90
2023/07/15 11:36:54;;;;;;;3.88;2.33;;;24.70;85.40;;;;;;5046186;28;20105;-92
2023/07/15 11:39:20;;;;;;;3.67;2.55;;;24.80;82.50;;;;;;5040495;28;20013;-92
2023/07/15 11:41:48;;;;;;;3.35;2.10;;;24.90;82.80;;;;;;5038523;28;20025;-91
2023/07/15 11:44:16;;;;;;;3.15;2.20;;;25.00;84.10;;;;;;5041354;28;20478;-89
2023/07/15 11:46:44;;;;;;;2.35;1.90;;;24.90;84.40;;;;;;5044558;28;20033;-89
2023/07/15 11:49:10;;;;;;;2.28;1.70;;;25.00;83.40;;;;;;5051637;28;20017;-92
2023/07/15 11:51:43;;;;;;;2.00;1.80;;;25.00;81.10;;;;;;5042668;28;20051;-90
2023/07/15 11:54:11;;;;;;;1.98;1.75;;;25.00;79.70;;;;;;5047685;28;20474;-91
2023/07/15 11:56:40;;;;;;;5.32;2.05;;;25.10;76.90;;;;;;5039790;28;20029;-89
2023/07/15 11:59:13;;;;;;;6.22;2.40;;;25.20;75.50;;;;;;5051406;28;20057;-90
2023/07/15 12:01:40;;;;;;;2.25;2.00;;;25.10;77.90;;;;;;5046977;28;20075;-90
2023/07/15 12:04:13;;;;;;;8.90;2.00;;;25.20;78.10;;;;;;5052036;28;20493;-90
2023/07/15 12:06:47;;;;;;;3.65;2.40;;;25.10;76.10;;;;;;5054093;28;20123;-90
2023/07/15 12:09:14;;;;;;;1.50;1.40;;;25.00;76.40;;;;;;5046083;28;20025;-91
2023/07/15 12:11:40;;;;;;;2.90;1.90;;;25.00;78.90;;;;;;5054797;28;20025;-91
2023/07/15 12:14:10;;;;;;;2.70;1.90;;;25.10;74.80;;;;;;5050165;28;20032;-88
2023/07/15 12:16:38;;;;;;;2.28;1.88;;;25.20;77.10;;;;;;5047705;28;20492;-89
2023/07/15 12:19:05;;;;;;;1.92;1.70;;;25.20;76.20;;;;;;5053031;28;20055;-91
2023/07/15 12:21:31;;;;;;;2.33;1.60;;;25.40;73.50;;;;;;5044370;28;20124;-89
2023/07/15 12:23:57;;;;;;;4.13;1.90;;;25.20;72.80;;;;;;5048616;28;20099;-89
2023/07/15 12:26:24;;;;;;;3.00;1.70;;;25.20;74.00;;;;;;5050930;28;20017;-89
2023/07/15 12:28:50;;;;;;;2.22;1.90;;;25.20;74.50;;;;;;5049997;28;20029;-89
2023/07/15 12:31:17;;;;;;;5.47;1.83;;;25.40;72.60;;;;;;5044627;28;20049;-91
2023/07/15 12:33:43;;;;;;;4.43;1.75;;;25.50;70.90;;;;;;5056156;28;20025;-89
2023/07/15 12:36:11;;;;;;;3.92;1.58;;;25.50;73.60;;;;;;5051459;28;20021;-89
2023/07/15 12:38:38;;;;;;;2.83;1.98;;;25.40;74.10;;;;;;5055954;28;20025;-90
2023/07/15 12:41:04;;;;;;;3.05;1.77;;;25.40;73.20;;;;;;5048753;28;20021;-92
2023/07/15 12:43:31;;;;;;;3.08;1.98;;;25.40;75.20;;;;;;5046186;28;20032;-92
2023/07/15 12:45:57;;;;;;;2.13;1.67;;;25.50;72.90;;;;;;5045680;28;20381;-92